Time;durP1;ratioP1;P1;durP2;ratioP2;P2;SDS_P1;SDS_P2;PMS_P1;PMS_P2;Temp;Humidity;BMP_temperature;BMP_pressure;BME280_temperature;BME280_humidity;BME280_pressure;Samples;Min_cycle;Max_cycle;Signal;HPM_P1;HPM_P2
2022/09/03 00:01:50;;;;;;;2.40;1.40;;;14.70;83.50;;;;;;5001634;28;20022;-86
2022/09/03 00:05:09;;;;;;;2.30;1.10;;;14.70;83.60;;;;;;5002565;28;20026;-85
2022/09/03 00:08:33;;;;;;;2.15;1.27;;;14.80;83.60;;;;;;4997718;28;20027;-86
2022/09/03 00:11:41;;;;;;;3.53;1.08;;;14.80;83.70;;;;;;4975789;28;20035;-85
2022/09/03 00:14:59;;;;;;;2.33;1.55;;;14.80;83.70;;;;;;4987523;28;20110;-85
2022/09/03 00:18:40;;;;;;;2.55;1.40;;;14.80;83.70;;;;;;5000523;28;20102;-85
2022/09/03 00:21:59;;;;;;;1.55;1.35;;;14.80;84.20;;;;;;5000467;28;20545;-86
2022/09/03 00:25:19;;;;;;;2.50;1.15;;;14.80;84.00;;;;;;4952578;28;20050;-86
2022/09/03 00:28:25;;;;;;;2.80;1.58;;;14.80;84.30;;;;;;4925428;29;20062;-85
2022/09/03 00:32:07;;;;;;;1.55;1.25;;;14.80;84.50;;;;;;4962231;28;20049;-85
2022/09/03 00:35:05;;;;;;;2.35;1.40;;;14.70;84.60;;;;;;4929026;28;20032;-86
2022/09/03 00:37:47;;;;;;;1.85;1.30;;;14.60;85.40;;;;;;5003567;28;20034;-86
2022/09/03 03:32:23;;;;;;;2.42;1.83;;;13.00;97.70;;;;;;5036287;28;20037;-85
2022/09/03 03:35:24;;;;;;;2.58;1.65;;;13.00;97.80;;;;;;5019279;28;20040;-85
2022/09/03 03:40:43;;;;;;;2.83;1.90;;;12.90;98.20;;;;;;5038072;28;20045;-85
2022/09/03 03:43:36;;;;;;;2.85;1.70;;;12.90;98.20;;;;;;5003892;28;20042;-85
2022/09/03 03:46:02;;;;;;;1.80;1.60;;;12.90;98.40;;;;;;5018450;28;20069;-83
2022/09/03 03:52:48;;;;;;;1.67;1.40;;;12.90;98.70;;;;;;5037395;28;20049;-87
2022/09/03 04:12:55;;;;;;;;;;;12.70;99.90;;;;;;4961424;28;20090;-87
2022/09/03 04:40:20;;;;;;;2.88;1.83;;;13.10;99.70;;;;;;4841036;29;20072;-85
2022/09/03 04:49:49;;;;;;;2.83;2.00;;;13.40;98.70;;;;;;5039407;22;20055;-83
2022/09/03 04:52:15;;;;;;;1.70;1.48;;;13.40;98.50;;;;;;5038551;28;20053;-82
2022/09/03 04:54:40;;;;;;;2.95;1.80;;;13.40;98.40;;;;;;5022408;28;20026;-83
2022/09/03 04:57:06;;;;;;;3.70;1.65;;;13.50;98.30;;;;;;5040201;28;20033;-84
2022/09/03 04:59:31;;;;;;;2.85;1.77;;;13.60;98.10;;;;;;5040564;28;20028;-83
2022/09/03 05:01:57;;;;;;;4.78;1.98;;;13.60;97.90;;;;;;5041046;28;20029;-83
2022/09/03 05:04:23;;;;;;;2.42;1.60;;;13.70;97.60;;;;;;5056449;28;20040;-83
2022/09/03 05:06:48;;;;;;;3.17;1.60;;;13.70;97.50;;;;;;5060610;28;20104;-83
2022/09/03 05:09:14;;;;;;;1.80;1.70;;;13.80;97.40;;;;;;5063990;28;20063;-83
2022/09/03 05:11:39;;;;;;;2.50;1.90;;;13.90;97.20;;;;;;5035622;28;20072;-84
2022/09/03 05:14:05;;;;;;;3.05;1.80;;;14.00;97.00;;;;;;5045878;28;20029;-85
2022/09/03 05:16:31;;;;;;;1.98;1.75;;;14.00;96.80;;;;;;5036608;28;20070;-83
2022/09/03 05:18:58;;;;;;;5.80;1.90;;;14.10;96.90;;;;;;5058806;28;20064;-83
2022/09/03 05:21:24;;;;;;;2.58;2.33;;;14.10;97.00;;;;;;5054864;28;20021;-84
2022/09/03 05:23:51;;;;;;;3.05;1.88;;;14.10;97.00;;;;;;5040404;28;20025;-84
2022/09/03 05:26:20;;;;;;;1.95;1.38;;;14.10;97.00;;;;;;5039359;28;20055;-83
2022/09/03 05:28:46;;;;;;;3.05;2.17;;;14.20;97.00;;;;;;5021358;28;20091;-84
2022/09/03 05:31:15;;;;;;;2.55;1.92;;;14.30;96.70;;;;;;5039460;28;20022;-83
2022/09/03 05:33:45;;;;;;;2.80;1.85;;;14.40;96.40;;;;;;5056769;28;20395;-84
2022/09/03 05:36:16;;;;;;;1.95;1.60;;;14.60;96.10;;;;;;5040656;28;20051;-82
2022/09/03 05:38:43;;;;;;;1.67;1.50;;;14.80;95.80;;;;;;5058281;28;20025;-83
2022/09/03 05:41:10;;;;;;;1.52;1.42;;;15.00;95.40;;;;;;5048656;28;20025;-84
2022/09/03 05:43:37;;;;;;;2.92;1.90;;;15.10;95.00;;;;;;5069551;28;20025;-84
2022/09/03 05:46:08;;;;;;;3.28;1.98;;;15.40;94.30;;;;;;5037582;28;20112;-83
2022/09/03 05:48:35;;;;;;;4.32;2.10;;;15.50;93.10;;;;;;5042337;28;20223;-82
2022/09/03 05:51:06;;;;;;;3.03;1.83;;;15.60;92.80;;;;;;5049990;28;20040;-84
2022/09/03 05:53:34;;;;;;;1.73;1.63;;;15.60;92.60;;;;;;5029726;28;20033;-83
2022/09/03 05:56:04;;;;;;;1.83;1.45;;;15.70;92.60;;;;;;5042555;28;20074;-83
2022/09/03 05:58:32;;;;;;;3.05;1.85;;;15.80;92.30;;;;;;5023673;28;20041;-83
2022/09/03 06:00:58;;;;;;;2.80;1.80;;;15.90;92.20;;;;;;5041652;28;20434;-83
2022/09/03 06:03:24;;;;;;;2.53;1.80;;;15.90;92.20;;;;;;5031580;28;20056;-84
2022/09/03 06:05:54;;;;;;;3.65;2.40;;;16.00;92.00;;;;;;5044554;28;20048;-83
2022/09/03 06:08:20;;;;;;;3.65;1.98;;;16.00;91.50;;;;;;5066488;28;20368;-83
2022/09/03 06:10:47;;;;;;;3.05;1.85;;;16.10;91.70;;;;;;5065532;28;20024;-84
2022/09/03 06:13:13;;;;;;;2.40;1.63;;;16.30;91.10;;;;;;5065209;28;20033;-84
2022/09/03 06:15:39;;;;;;;3.20;1.63;;;16.50;91.30;;;;;;5043104;28;20025;-84
2022/09/03 06:18:05;;;;;;;3.88;1.95;;;16.60;90.60;;;;;;5060133;28;20112;-84
2022/09/03 06:20:32;;;;;;;5.55;1.90;;;16.50;90.10;;;;;;5034515;28;20044;-83
2022/09/03 06:22:57;;;;;;;3.58;1.60;;;16.50;90.10;;;;;;5068337;28;20047;-83
2022/09/03 06:25:23;;;;;;;2.53;1.90;;;16.50;90.30;;;;;;5076123;28;20025;-83
2022/09/03 06:27:49;;;;;;;1.63;1.52;;;16.60;90.40;;;;;;5076054;28;20074;-83
2022/09/03 06:30:15;;;;;;;1.70;1.60;;;16.80;90.20;;;;;;5064239;28;20054;-83
2022/09/03 06:32:52;;;;;;;1.60;1.27;;;17.00;89.80;;;;;;5062635;28;20024;-84
2022/09/03 06:35:18;;;;;;;5.15;1.70;;;17.00;89.20;;;;;;5047820;28;20037;-83
2022/09/03 06:37:44;;;;;;;2.25;1.38;;;16.90;88.80;;;;;;5056357;28;20052;-83
2022/09/03 06:40:19;;;;;;;2.70;1.50;;;16.70;89.30;;;;;;5055964;28;20013;-83
2022/09/03 06:42:56;;;;;;;2.65;1.70;;;16.60;89.80;;;;;;5038100;28;20021;-83
2022/09/03 06:45:22;;;;;;;4.90;1.90;;;16.40;90.20;;;;;;5024419;28;20064;-83
2022/09/03 06:47:48;;;;;;;4.90;2.50;;;16.30;90.50;;;;;;5024489;28;20033;-83
2022/09/03 06:50:13;;;;;;;1.75;1.65;;;16.30;90.80;;;;;;5053613;28;20049;-84
2022/09/03 06:52:39;;;;;;;1.40;1.23;;;16.30;90.90;;;;;;5061508;28;20029;-83
2022/09/03 06:55:05;;;;;;;1.17;1.08;;;16.30;91.00;;;;;;5055086;28;20137;-84
2022/09/03 06:57:31;;;;;;;1.30;1.20;;;16.60;90.80;;;;;;5042460;28;20045;-83
2022/09/03 06:59:57;;;;;;;1.42;1.15;;;16.70;90.40;;;;;;5024602;28;20028;-83
2022/09/03 07:02:22;;;;;;;1.90;1.48;;;16.90;90.10;;;;;;5023483;28;20029;-84
2022/09/03 07:04:48;;;;;;;1.88;1.45;;;16.90;89.80;;;;;;5041664;28;20064;-83
2022/09/03 07:07:15;;;;;;;1.85;1.58;;;16.90;89.80;;;;;;5060908;28;20453;-83
2022/09/03 07:09:40;;;;;;;1.50;1.40;;;16.90;89.40;;;;;;5060306;28;20025;-83
2022/09/03 07:12:06;;;;;;;3.65;2.05;;;16.90;89.40;;;;;;5058430;28;20103;-83
2022/09/03 07:14:32;;;;;;;2.85;1.60;;;16.80;89.10;;;;;;5057583;28;20027;-83
2022/09/03 07:16:58;;;;;;;1.92;1.77;;;16.80;89.70;;;;;;5024619;28;20033;-83
2022/09/03 07:19:24;;;;;;;1.90;1.50;;;16.80;90.10;;;;;;5028638;28;20480;-83
2022/09/03 07:21:49;;;;;;;2.15;1.60;;;16.80;90.30;;;;;;5061196;28;20037;-84
2022/09/03 07:24:15;;;;;;;1.65;1.55;;;16.80;90.30;;;;;;5030527;28;20025;-83
2022/09/03 07:26:48;;;;;;;3.72;1.70;;;16.80;90.30;;;;;;5053414;28;20030;-83
2022/09/03 07:29:15;;;;;;;1.65;1.55;;;16.90;90.40;;;;;;5042352;28;20026;-84
2022/09/03 07:31:42;;;;;;;2.78;1.90;;;16.90;90.30;;;;;;5040726;28;20026;-84
2022/09/03 07:34:10;;;;;;;2.13;1.92;;;16.80;90.30;;;;;;5039547;28;20073;-83
2022/09/03 07:36:48;;;;;;;2.33;1.80;;;16.90;90.40;;;;;;5047172;28;20025;-83
2022/09/03 07:39:14;;;;;;;5.55;2.13;;;16.90;90.20;;;;;;5046322;28;20052;-84
2022/09/03 07:41:44;;;;;;;1.83;1.65;;;17.00;90.10;;;;;;5039892;28;20496;-83
2022/09/03 07:44:12;;;;;;;2.30;2.10;;;17.00;90.30;;;;;;5041438;28;20018;-84
2022/09/03 07:46:39;;;;;;;2.10;1.88;;;17.00;90.40;;;;;;5041855;28;20101;-84
2022/09/03 07:49:05;;;;;;;1.67;1.58;;;17.00;90.40;;;;;;5050093;28;20406;-83
2022/09/03 07:51:34;;;;;;;3.40;1.35;;;16.90;90.70;;;;;;5032533;28;20053;-83
2022/09/03 07:54:02;;;;;;;2.15;1.95;;;16.90;91.10;;;;;;5040776;28;20021;-83
2022/09/03 07:56:31;;;;;;;3.13;1.90;;;16.90;91.50;;;;;;5042018;28;20022;-84
2022/09/03 07:58:58;;;;;;;1.70;1.60;;;17.00;91.90;;;;;;5060820;28;20083;-84
2022/09/03 08:01:27;;;;;;;2.47;1.60;;;16.90;92.40;;;;;;5060087;28;20021;-84
2022/09/03 08:03:53;;;;;;;2.75;1.70;;;16.90;92.70;;;;;;5059641;28;20021;-84
2022/09/03 08:06:22;;;;;;;4.32;1.70;;;16.90;93.00;;;;;;5041142;28;20032;-84
2022/09/03 08:08:53;;;;;;;2.28;1.90;;;16.90;93.40;;;;;;5059040;28;20411;-83
2022/09/03 08:11:20;;;;;;;1.50;1.40;;;16.90;93.80;;;;;;5061332;28;20056;-83
2022/09/03 08:14:01;;;;;;;2.92;1.77;;;16.90;94.20;;;;;;5048001;28;20017;-84
2022/09/03 08:16:32;;;;;;;3.17;1.70;;;17.00;94.40;;;;;;5062488;28;20013;-84
2022/09/03 08:18:58;;;;;;;1.77;1.67;;;17.10;94.20;;;;;;5041726;28;20027;-84
2022/09/03 08:21:25;;;;;;;1.73;1.50;;;17.30;93.90;;;;;;5045745;28;20048;-84
2022/09/03 08:24:03;;;;;;;1.67;1.58;;;17.50;93.40;;;;;;5026643;28;20048;-85
2022/09/03 08:26:37;;;;;;;1.73;1.63;;;17.70;93.10;;;;;;5045934;28;20075;-83
2022/09/03 08:29:04;;;;;;;3.53;2.35;;;17.90;93.10;;;;;;5067235;28;20506;-84
2022/09/03 08:31:31;;;;;;;1.73;1.63;;;18.20;93.00;;;;;;5066489;28;20033;-84
2022/09/03 08:33:58;;;;;;;1.92;1.52;;;18.50;92.70;;;;;;5059686;28;20073;-84
2022/09/03 08:36:29;;;;;;;1.70;1.60;;;18.80;91.80;;;;;;5061407;28;20028;-82
2022/09/03 08:38:55;;;;;;;2.40;1.90;;;19.00;91.50;;;;;;5072603;28;20486;-83
2022/09/03 08:41:45;;;;;;;2.08;1.60;;;19.30;90.90;;;;;;5068896;28;20035;-84
2022/09/03 08:44:45;;;;;;;3.67;2.50;;;19.40;90.80;;;;;;5071501;28;20024;-84
2022/09/03 08:47:30;;;;;;;2.20;2.00;;;19.90;89.80;;;;;;5063934;28;20104;-84
2022/09/03 08:50:18;;;;;;;2.38;2.17;;;20.30;88.60;;;;;;5051629;28;20029;-83
2022/09/03 08:53:08;;;;;;;2.40;2.20;;;20.50;86.50;;;;;;5024719;28;20045;-83
2022/09/03 08:55:43;;;;;;;2.25;2.05;;;20.70;85.70;;;;;;5039966;28;20476;-83
2022/09/03 08:58:13;;;;;;;2.72;2.00;;;20.80;85.00;;;;;;5039947;28;20029;-83
2022/09/03 09:00:47;;;;;;;2.67;1.70;;;20.90;84.90;;;;;;5038533;28;20029;-83
2022/09/03 09:03:16;;;;;;;2.30;2.10;;;21.30;84.10;;;;;;5039804;28;20433;-84
2022/09/03 09:05:57;;;;;;;1.77;1.67;;;21.50;82.50;;;;;;5021944;28;20022;-83
2022/09/03 09:08:43;;;;;;;4.18;1.92;;;21.80;81.70;;;;;;5040346;28;20022;-83
2022/09/03 09:12:07;;;;;;;2.20;2.00;;;22.10;80.10;;;;;;5040462;28;20037;-83
2022/09/03 09:15:01;;;;;;;2.33;2.13;;;22.30;78.40;;;;;;4968672;28;20054;-84
2022/09/03 09:17:44;;;;;;;3.55;2.42;;;22.60;76.90;;;;;;5036319;28;20065;-83
2022/09/03 09:20:31;;;;;;;2.20;2.00;;;22.70;75.20;;;;;;5039884;28;20041;-84
2022/09/03 09:23:07;;;;;;;3.17;1.70;;;22.70;75.50;;;;;;5055802;28;20052;-83
2022/09/03 09:25:45;;;;;;;1.75;1.65;;;22.80;75.20;;;;;;5074109;28;20100;-83
2022/09/03 09:28:17;;;;;;;2.10;2.00;;;22.80;75.20;;;;;;5057644;28;20028;-83
2022/09/03 09:30:46;;;;;;;1.85;1.73;;;23.30;74.70;;;;;;5045487;28;20063;-83
2022/09/03 09:33:16;;;;;;;1.80;1.70;;;23.60;72.80;;;;;;5057039;28;20034;-84
2022/09/03 09:35:43;;;;;;;3.33;2.25;;;23.60;72.40;;;;;;5056718;28;20077;-84
2022/09/03 09:38:10;;;;;;;2.40;1.90;;;23.70;72.60;;;;;;5056007;28;20047;-83
2022/09/03 09:40:41;;;;;;;1.90;1.80;;;23.90;71.30;;;;;;5062823;28;20040;-83
2022/09/03 09:43:20;;;;;;;1.65;1.55;;;23.60;71.60;;;;;;5077373;28;20025;-83
2022/09/03 09:45:51;;;;;;;1.42;1.42;;;23.60;71.80;;;;;;5076998;28;20036;-84
2022/09/03 09:48:33;;;;;;;2.35;1.83;;;23.60;71.50;;;;;;5074486;28;20029;-84
2022/09/03 09:51:06;;;;;;;2.63;1.60;;;23.70;71.20;;;;;;5072346;28;20027;-84
2022/09/03 09:53:31;;;;;;;1.50;1.40;;;24.20;69.80;;;;;;5076778;28;20065;-82
2022/09/03 09:55:57;;;;;;;2.22;1.60;;;24.90;67.40;;;;;;5058144;28;20029;-83
2022/09/03 09:58:27;;;;;;;1.73;1.65;;;25.30;65.30;;;;;;5043896;28;20107;-84
2022/09/03 10:01:14;;;;;;;1.70;1.60;;;25.30;64.70;;;;;;5042736;28;20025;-84
2022/09/03 10:04:20;;;;;;;1.98;1.27;;;24.90;64.60;;;;;;5049780;28;20017;-83
2022/09/03 10:06:55;;;;;;;1.92;1.45;;;24.50;65.40;;;;;;5062388;28;20029;-83
2022/09/03 10:09:27;;;;;;;1.75;1.65;;;24.30;66.30;;;;;;5063660;28;20017;-83
2022/09/03 10:12:14;;;;;;;1.65;1.55;;;24.40;65.90;;;;;;5060770;28;20445;-84
2022/09/03 10:14:46;;;;;;;2.05;1.60;;;24.20;65.00;;;;;;5062506;28;20029;-83
2022/09/03 10:17:17;;;;;;;;;;;23.90;66.30;;;;;;5063402;28;20021;-84
2022/09/03 10:20:43;;;;;;;1.50;1.40;;;23.70;67.10;;;;;;5062640;28;19958;-82
2022/09/03 10:23:14;;;;;;;2.05;1.80;;;23.60;68.20;;;;;;5055280;28;20060;-84
2022/09/03 10:25:59;;;;;;;1.67;1.58;;;23.60;67.80;;;;;;5024195;28;20087;-83
2022/09/03 10:28:27;;;;;;;1.85;1.63;;;23.50;68.70;;;;;;5040308;28;20056;-83
2022/09/03 10:30:54;;;;;;;1.13;1.13;;;23.60;68.60;;;;;;5022075;28;20072;-83
2022/09/03 10:33:33;;;;;;;1.67;1.33;;;23.80;67.40;;;;;;5039898;28;20390;-83
2022/09/03 10:36:38;;;;;;;1.48;1.38;;;24.20;66.20;;;;;;5039377;28;20025;-83
2022/09/03 10:39:09;;;;;;;1.55;1.45;;;24.70;64.90;;;;;;5039385;28;20038;-84
2022/09/03 10:41:47;;;;;;;1.27;1.20;;;25.00;64.20;;;;;;5042307;28;20032;-84
2022/09/03 10:44:27;;;;;;;1.52;1.42;;;25.60;63.40;;;;;;5077155;28;20047;-84
2022/09/03 10:47:03;;;;;;;1.02;1.02;;;26.10;61.70;;;;;;5058242;28;20037;-84
2022/09/03 10:49:49;;;;;;;1.48;1.38;;;26.40;60.10;;;;;;5045432;28;20053;-82
2022/09/03 10:52:21;;;;;;;1.45;1.35;;;26.60;59.20;;;;;;5050804;28;20061;-82
2022/09/03 10:54:59;;;;;;;1.38;1.27;;;26.80;58.70;;;;;;5066859;28;20035;-82
2022/09/03 10:57:50;;;;;;;1.60;1.50;;;27.20;57.60;;;;;;5065382;28;20051;-82
2022/09/03 11:00:17;;;;;;;1.30;1.30;;;27.30;56.70;;;;;;5053208;28;20388;-82
2022/09/03 11:03:11;;;;;;;1.30;1.20;;;27.60;55.90;;;;;;5045363;28;20102;-82
2022/09/03 11:05:42;;;;;;;1.38;1.38;;;27.80;55.30;;;;;;5047578;28;20056;-83
2022/09/03 11:08:22;;;;;;;1.50;1.40;;;28.00;55.30;;;;;;5046459;28;20052;-81
2022/09/03 11:10:56;;;;;;;1.58;1.48;;;27.90;54.70;;;;;;5060620;28;20025;-81
2022/09/03 11:13:38;;;;;;;2.83;1.30;;;27.70;55.00;;;;;;5067705;28;20048;-82
2022/09/03 11:16:21;;;;;;;1.42;1.42;;;27.90;54.60;;;;;;5072165;28;20093;-81
2022/09/03 11:18:56;;;;;;;1.35;1.35;;;27.40;54.80;;;;;;5076237;28;20020;-81
2022/09/03 11:21:29;;;;;;;1.30;1.30;;;26.70;55.70;;;;;;5061968;28;20025;-82
2022/09/03 11:24:17;;;;;;;1.50;1.42;;;26.50;56.40;;;;;;5069418;28;20506;-82
2022/09/03 11:26:47;;;;;;;2.00;1.25;;;26.30;56.90;;;;;;5066504;28;20028;-82
2022/09/03 11:29:24;;;;;;;1.58;1.42;;;26.40;56.80;;;;;;5070458;28;20029;-80
2022/09/03 11:31:51;;;;;;;1.70;1.40;;;26.40;56.60;;;;;;5073953;28;20029;-82
2022/09/03 11:34:24;;;;;;;1.38;1.38;;;26.50;56.50;;;;;;5069369;28;20021;-82
2022/09/03 11:36:51;;;;;;;1.20;1.10;;;26.50;56.30;;;;;;5068205;28;20013;-82
2022/09/03 11:39:32;;;;;;;2.03;1.58;;;26.20;56.40;;;;;;5067173;28;20112;-82
2022/09/03 11:42:05;;;;;;;1.80;1.70;;;25.90;57.30;;;;;;5053499;28;20025;-82
2022/09/03 11:44:53;;;;;;;1.75;1.40;;;25.50;59.10;;;;;;5046471;28;20033;-82
2022/09/03 11:47:19;;;;;;;1.42;1.33;;;25.50;58.70;;;;;;5045227;28;20171;-82
2022/09/03 11:49:52;;;;;;;1.73;1.60;;;25.80;57.50;;;;;;5051600;28;20503;-82
2022/09/03 11:52:31;;;;;;;1.38;1.38;;;26.10;56.60;;;;;;5046619;28;20067;-82
2022/09/03 11:54:57;;;;;;;1.50;1.40;;;26.20;56.20;;;;;;5055297;28;20087;-82
2022/09/03 11:57:26;;;;;;;3.13;1.50;;;26.50;56.40;;;;;;5046872;28;20025;-82
2022/09/03 11:59:52;;;;;;;1.38;1.38;;;26.80;55.80;;;;;;5048023;28;20017;-81
2022/09/03 12:02:29;;;;;;;1.38;1.38;;;27.00;55.20;;;;;;5040619;28;20488;-82
2022/09/03 12:04:55;;;;;;;1.40;1.40;;;27.00;54.80;;;;;;5038103;28;20033;-82
2022/09/03 12:07:43;;;;;;;1.92;1.58;;;27.00;54.90;;;;;;5044322;28;20067;-82
2022/09/03 12:10:26;;;;;;;3.38;1.70;;;26.80;54.80;;;;;;5043530;28;20021;-81
2022/09/03 12:13:25;;;;;;;1.50;1.40;;;26.30;55.20;;;;;;5056779;28;20025;-81
2022/09/03 12:15:50;;;;;;;1.33;1.30;;;26.10;56.10;;;;;;5058062;28;20031;-82
2022/09/03 12:18:24;;;;;;;1.60;1.50;;;26.00;56.60;;;;;;5062910;28;20211;-82
2022/09/03 12:20:59;;;;;;;1.65;1.52;;;26.10;56.50;;;;;;5050218;28;20128;-83
2022/09/03 12:23:49;;;;;;;2.08;1.80;;;26.10;56.10;;;;;;5053325;28;20499;-84
2022/09/03 12:26:23;;;;;;;1.85;1.38;;;26.30;55.80;;;;;;5057104;28;20080;-82
2022/09/03 12:28:55;;;;;;;1.52;1.42;;;26.50;55.00;;;;;;5056953;28;20025;-80
2022/09/03 12:31:28;;;;;;;1.67;1.42;;;26.70;55.30;;;;;;5057541;28;20079;-82
2022/09/03 12:34:13;;;;;;;1.30;1.30;;;26.90;54.90;;;;;;5041735;28;20033;-82
2022/09/03 12:36:45;;;;;;;2.47;1.98;;;27.10;54.50;;;;;;5040906;28;20028;-83
2022/09/03 12:39:23;;;;;;;2.38;1.35;;;27.30;53.60;;;;;;5023663;28;20097;-82
2022/09/03 12:42:02;;;;;;;2.17;1.65;;;27.10;53.80;;;;;;5042556;28;20028;-81
2022/09/03 12:44:40;;;;;;;2.00;1.58;;;26.90;54.80;;;;;;5059993;28;20479;-82
2022/09/03 12:47:12;;;;;;;1.70;1.60;;;26.70;54.80;;;;;;5044511;28;20052;-83
2022/09/03 12:49:43;;;;;;;1.65;1.55;;;26.80;54.70;;;;;;5060148;28;20029;-82
2022/09/03 12:52:35;;;;;;;2.05;1.50;;;26.70;54.70;;;;;;5057299;28;20075;-83
2022/09/03 12:55:33;;;;;;;1.30;1.15;;;26.70;55.10;;;;;;5060875;28;20064;-81
2022/09/03 12:58:10;;;;;;;1.85;1.58;;;26.50;55.60;;;;;;5042584;28;20395;-83
2022/09/03 13:00:41;;;;;;;2.15;1.58;;;26.50;55.90;;;;;;5041576;28;20021;-83
2022/09/03 13:03:19;;;;;;;1.48;1.38;;;26.20;56.00;;;;;;5050815;28;20031;-81
2022/09/03 13:05:53;;;;;;;2.65;1.88;;;25.70;57.00;;;;;;5056767;28;20021;-82
2022/09/03 13:09:04;;;;;;;1.63;1.40;;;25.30;58.00;;;;;;5047777;28;20045;-83
2022/09/03 13:11:36;;;;;;;1.50;1.40;;;25.00;59.30;;;;;;5042532;28;20034;-82
2022/09/03 13:14:11;;;;;;;4.00;1.90;;;25.10;59.10;;;;;;5041739;28;20018;-83
2022/09/03 13:16:37;;;;;;;1.33;1.30;;;25.30;58.60;;;;;;5039457;28;20025;-83
2022/09/03 13:19:17;;;;;;;1.40;1.40;;;25.30;57.90;;;;;;5030667;28;20131;-82
2022/09/03 13:21:52;;;;;;;2.70;1.50;;;25.10;58.10;;;;;;5027386;28;20025;-82
2022/09/03 13:24:51;;;;;;;1.65;1.55;;;24.90;58.70;;;;;;5049128;28;20150;-82
2022/09/03 13:27:36;;;;;;;1.70;1.60;;;24.70;59.40;;;;;;5040755;28;20365;-82
2022/09/03 13:30:12;;;;;;;1.63;1.52;;;24.60;59.30;;;;;;5040976;28;20033;-82
2022/09/03 13:32:59;;;;;;;1.52;1.42;;;24.80;59.50;;;;;;5057418;28;20025;-82
2022/09/03 13:35:40;;;;;;;2.72;1.33;;;25.50;58.50;;;;;;5061556;28;20025;-80
2022/09/03 13:38:25;;;;;;;1.55;1.40;;;26.20;56.80;;;;;;5061383;28;20036;-81
2022/09/03 13:41:06;;;;;;;2.97;1.60;;;26.70;55.00;;;;;;5062377;28;20025;-83
2022/09/03 13:43:47;;;;;;;1.40;1.33;;;27.00;54.00;;;;;;5042140;28;20040;-82
2022/09/03 13:46:22;;;;;;;1.30;1.30;;;26.80;54.20;;;;;;5023865;28;20436;-83
2022/09/03 13:51:48;;;;;;;4.63;1.75;;;25.90;56.10;;;;;;5059275;28;20089;-82
2022/09/03 13:54:26;;;;;;;2.60;1.73;;;25.30;58.20;;;;;;5065439;28;20049;-82
2022/09/03 13:57:07;;;;;;;1.20;1.20;;;24.70;59.80;;;;;;5073099;28;20065;-83
2022/09/03 13:59:48;;;;;;;1.40;1.30;;;24.30;61.40;;;;;;5052023;28;20029;-82
2022/09/03 14:02:27;;;;;;;1.58;1.48;;;24.00;62.00;;;;;;5046026;28;20093;-82
2022/09/03 14:05:46;;;;;;;1.67;1.58;;;23.90;62.50;;;;;;5071902;28;20047;-81
2022/09/03 14:08:27;;;;;;;1.90;1.55;;;23.70;63.30;;;;;;5069149;28;20017;-82
2022/09/03 14:10:58;;;;;;;1.60;1.50;;;23.50;64.40;;;;;;5061647;28;20021;-82
2022/09/03 14:13:39;;;;;;;1.80;1.70;;;23.30;65.10;;;;;;5059199;28;20025;-82
2022/09/03 14:16:28;;;;;;;1.85;1.73;;;23.20;65.80;;;;;;5064115;28;20028;-83
2022/09/03 14:18:57;;;;;;;1.90;1.70;;;23.10;66.40;;;;;;5056827;28;20070;-83
2022/09/03 14:21:39;;;;;;;1.65;1.55;;;23.00;67.30;;;;;;5057041;28;20527;-81
2022/09/03 14:24:23;;;;;;;1.55;1.38;;;22.80;67.70;;;;;;5063845;28;20037;-82
2022/09/03 14:26:55;;;;;;;1.58;1.48;;;22.70;68.30;;;;;;5065647;28;20175;-81
2022/09/03 14:29:28;;;;;;;1.60;1.50;;;22.60;68.50;;;;;;5064833;28;20025;-82
2022/09/03 14:32:18;;;;;;;4.35;1.42;;;22.50;67.70;;;;;;5064676;28;20051;-81
2022/09/03 14:35:05;;;;;;;2.47;1.42;;;22.40;69.70;;;;;;5051586;28;20093;-82
2022/09/03 14:38:02;;;;;;;5.78;2.35;;;20.30;99.90;;;;;;5048281;28;20041;-81
2022/09/03 14:40:48;;;;;;;3.22;1.80;;;20.00;99.90;;;;;;5038655;28;20032;-82
2022/09/03 14:43:24;;;;;;;3.85;1.45;;;17.80;99.90;;;;;;5040984;28;20026;-80
2022/09/03 14:46:08;;;;;;;1.92;1.73;;;16.70;99.90;;;;;;5066208;28;20029;-81
2022/09/03 14:48:45;;;;;;;4.30;2.75;;;16.20;99.90;;;;;;5058111;28;20060;-81
2022/09/03 14:51:14;;;;;;;4.55;2.63;;;16.00;99.90;;;;;;5034995;28;20037;-80
2022/09/03 14:53:58;;;;;;;3.10;2.80;;;15.90;99.90;;;;;;5042721;28;20021;-81
2022/09/03 14:56:42;;;;;;;3.53;2.70;;;15.90;99.90;;;;;;5058914;28;20036;-81
2022/09/03 14:59:38;;;;;;;2.67;2.40;;;15.90;99.90;;;;;;5059076;28;20406;-81
2022/09/03 15:02:26;;;;;;;5.22;2.83;;;15.90;99.90;;;;;;5060555;28;20040;-81
2022/09/03 15:05:08;;;;;;;3.42;2.67;;;15.90;99.90;;;;;;5056872;28;20029;-81
2022/09/03 15:07:54;;;;;;;3.60;2.83;;;15.80;99.90;;;;;;5048370;28;20034;-82
2022/09/03 15:10:26;;;;;;;2.85;2.40;;;15.90;99.90;;;;;;5043029;28;20545;-80
2022/09/03 15:12:57;;;;;;;3.05;2.20;;;16.00;99.90;;;;;;5026716;28;20026;-80
2022/09/03 15:15:32;;;;;;;2.90;2.58;;;15.90;99.90;;;;;;5044934;28;20420;-81
2022/09/03 15:18:13;;;;;;;2.58;2.38;;;15.90;99.90;;;;;;5031555;28;20118;-81
2022/09/03 15:20:53;;;;;;;3.15;2.55;;;16.00;99.90;;;;;;5055257;28;20029;-80
2022/09/03 15:23:55;;;;;;;2.45;2.10;;;16.10;99.90;;;;;;5045611;28;20029;-81
2022/09/03 15:26:45;;;;;;;2.28;1.85;;;16.20;99.90;;;;;;5047992;28;20033;-81
2022/09/03 15:29:35;;;;;;;1.90;1.80;;;16.20;99.90;;;;;;5025891;28;20488;-81
2022/09/03 15:32:31;;;;;;;2.08;1.98;;;16.20;99.90;;;;;;5043878;28;20013;-81
2022/09/03 15:35:15;;;;;;;2.20;2.00;;;16.30;99.90;;;;;;5025681;28;20026;-81
2022/09/03 15:38:38;;;;;;;2.15;1.83;;;16.30;99.90;;;;;;5042903;28;20029;-82
2022/09/03 15:41:07;;;;;;;;;;;16.30;99.90;;;;;;5030962;28;20017;-82
2022/09/03 15:43:34;;;;;;;2.20;2.00;;;16.20;99.90;;;;;;5026107;28;19948;-82
2022/09/03 15:46:04;;;;;;;1.85;1.75;;;16.20;99.90;;;;;;5046434;28;20017;-82
2022/09/03 15:48:36;;;;;;;2.42;1.92;;;16.10;99.90;;;;;;5063770;28;20111;-81
2022/09/03 15:51:15;;;;;;;2.67;2.35;;;16.20;99.90;;;;;;5056836;28;20057;-81
2022/09/03 15:53:49;;;;;;;1.98;1.88;;;16.10;99.90;;;;;;5026302;28;20026;-81
2022/09/03 15:56:22;;;;;;;1.98;1.77;;;16.10;99.90;;;;;;5046282;28;20021;-82
2022/09/03 15:58:57;;;;;;;1.90;1.70;;;16.20;99.90;;;;;;5056221;28;20068;-82
2022/09/03 16:01:38;;;;;;;1.88;1.65;;;16.20;99.90;;;;;;5058146;28;20033;-81
2022/09/03 16:04:33;;;;;;;2.03;1.73;;;16.20;99.90;;;;;;5063391;28;20341;-81
2022/09/03 16:07:18;;;;;;;3.75;1.90;;;16.30;99.90;;;;;;5055790;28;20160;-81
2022/09/03 16:09:52;;;;;;;2.17;1.77;;;16.50;99.90;;;;;;5043258;28;20093;-82
2022/09/03 16:12:30;;;;;;;2.47;1.70;;;16.60;99.90;;;;;;5043552;28;20036;-82
2022/09/03 16:15:09;;;;;;;2.42;1.42;;;17.00;99.90;;;;;;5042107;28;20037;-81
2022/09/03 16:18:01;;;;;;;3.95;1.90;;;17.40;99.90;;;;;;5059327;28;20029;-81
2022/09/03 16:20:29;;;;;;;1.65;1.50;;;17.80;99.90;;;;;;5033958;28;20038;-81
2022/09/03 16:23:12;;;;;;;3.30;1.70;;;18.20;99.90;;;;;;5058205;28;20040;-82
2022/09/03 16:25:54;;;;;;;1.20;1.10;;;18.50;99.90;;;;;;5060327;28;20036;-81
2022/09/03 16:28:38;;;;;;;1.55;1.45;;;18.70;99.90;;;;;;5048770;28;20029;-83
2022/09/03 16:31:38;;;;;;;1.75;1.50;;;18.80;99.90;;;;;;5040430;28;20029;-81
2022/09/03 16:34:32;;;;;;;2.00;1.58;;;18.80;99.90;;;;;;5055148;28;20024;-81
2022/09/03 16:37:24;;;;;;;1.48;1.38;;;18.60;99.90;;;;;;5063540;28;20031;-82
2022/09/03 16:40:05;;;;;;;1.30;1.20;;;18.50;99.90;;;;;;5059380;28;20104;-82
2022/09/03 16:43:04;;;;;;;1.10;1.10;;;18.30;99.90;;;;;;5061827;28;20025;-82
2022/09/03 16:45:57;;;;;;;1.08;0.98;;;18.20;99.90;;;;;;5048150;28;20099;-81
2022/09/03 16:49:00;;;;;;;1.25;1.17;;;18.00;99.90;;;;;;5043388;28;20025;-83
2022/09/03 16:51:38;;;;;;;1.13;1.13;;;17.80;99.90;;;;;;5051447;28;20030;-82
2022/09/03 16:54:52;;;;;;;2.35;1.73;;;17.70;99.90;;;;;;5057119;28;20010;-83
2022/09/03 16:57:42;;;;;;;2.33;1.48;;;17.60;99.90;;;;;;4985065;28;20100;-83
2022/09/03 17:00:20;;;;;;;2.13;1.42;;;17.50;99.90;;;;;;5006897;28;20044;-83
2022/09/03 17:03:05;;;;;;;1.73;1.58;;;17.40;99.90;;;;;;5055536;28;20368;-83
2022/09/03 17:05:53;;;;;;;1.52;1.13;;;17.20;99.90;;;;;;5059292;28;20021;-83
2022/09/03 17:08:22;;;;;;;1.40;1.30;;;17.10;99.90;;;;;;5059046;28;20100;-84
2022/09/03 17:11:09;;;;;;;1.40;1.30;;;17.00;99.90;;;;;;5057994;28;20574;-83
2022/09/03 17:13:59;;;;;;;1.52;1.42;;;16.90;99.90;;;;;;5055172;28;20029;-83
2022/09/03 17:16:36;;;;;;;2.83;1.67;;;16.80;99.90;;;;;;5056487;28;20029;-83
2022/09/03 17:19:26;;;;;;;1.65;1.55;;;16.70;99.90;;;;;;5057016;28;20085;-83
2022/09/03 17:22:16;;;;;;;1.77;1.67;;;16.70;99.90;;;;;;5047014;28;20116;-84
2022/09/03 17:24:51;;;;;;;2.40;1.67;;;16.60;99.90;;;;;;5048922;28;20025;-84
2022/09/03 17:27:49;;;;;;;1.80;1.70;;;16.60;99.90;;;;;;5046869;28;20032;-84
2022/09/03 17:30:26;;;;;;;1.92;1.77;;;16.60;99.90;;;;;;5056228;28;20108;-83
2022/09/03 17:33:49;;;;;;;2.00;1.85;;;16.50;99.90;;;;;;5031813;28;20021;-83
2022/09/03 17:36:17;;;;;;;1.85;1.73;;;16.50;99.90;;;;;;5021057;28;20040;-84